Time;durP1;ratioP1;P1;durP2;ratioP2;P2;SDS_P1;SDS_P2;PMS_P1;PMS_P2;Temp;Humidity;BMP_temperature;BMP_pressure;BME280_temperature;BME280_humidity;BME280_pressure;Samples;Min_cycle;Max_cycle;Signal;HPM_P1;HPM_P2
2020/12/19 00:01:55;;;;;;;1.70;0.40;;;;;;;6.08;100.00;101323.97;4960723;28;20186;-76
2020/12/19 00:04:20;;;;;;;2.10;0.40;;;;;;;6.16;100.00;101323.25;4944396;28;20217;-76
2020/12/19 00:06:46;;;;;;;1.40;0.23;;;;;;;5.92;100.00;101317.44;4944085;28;20213;-77
2020/12/19 00:09:12;;;;;;;1.97;0.40;;;;;;;5.83;100.00;101321.97;4968361;28;20197;-75
2020/12/19 00:11:42;;;;;;;1.93;0.20;;;;;;;6.07;100.00;101326.97;4950613;28;20289;-76
2020/12/19 00:14:07;;;;;;;1.30;0.20;;;;;;;5.92;100.00;101328.13;4966241;28;20461;-76
2020/12/19 00:16:33;;;;;;;1.50;0.30;;;;;;;5.80;100.00;101327.09;4966776;28;20586;-76
2020/12/19 00:18:59;;;;;;;1.40;0.20;;;;;;;5.81;100.00;101323.31;5012551;28;20479;-75
2020/12/19 00:21:32;;;;;;;1.60;0.23;;;;;;;5.88;100.00;101324.53;5023063;28;20221;-76
2020/12/19 00:23:58;;;;;;;1.60;0.20;;;;;;;5.83;100.00;101327.31;5007025;28;20218;-76
2020/12/19 00:26:33;;;;;;;1.43;0.23;;;;;;;5.72;100.00;101317.94;5019488;28;20467;-76
2020/12/19 00:28:59;;;;;;;2.03;0.30;;;;;;;5.83;100.00;101315.78;5002954;28;20270;-76
2020/12/19 00:31:25;;;;;;;1.80;0.30;;;;;;;5.89;100.00;101320.75;5021007;28;20439;-77
2020/12/19 00:33:50;;;;;;;2.67;0.60;;;;;;;5.89;100.00;101320.75;5016593;28;20200;-76
2020/12/19 00:36:17;;;;;;;2.17;0.57;;;;;;;5.98;100.00;101308.19;5010829;28;20211;-76
2020/12/19 00:38:42;;;;;;;2.87;0.63;;;;;;;5.74;100.00;101312.28;5012161;28;20191;-77
2020/12/19 00:41:28;;;;;;;3.30;0.53;;;;;;;5.94;100.00;101304.56;5010899;28;20951;-77
2020/12/19 00:43:53;;;;;;;1.77;0.30;;;;;;;5.80;100.00;101301.19;4918622;29;20647;-75
2020/12/19 00:46:20;;;;;;;2.10;0.40;;;;;;;5.93;100.00;101296.88;4916474;29;20471;-77
2020/12/19 00:48:47;;;;;;;1.70;0.30;;;;;;;5.91;100.00;101304.41;4917290;29;20190;-75
2020/12/19 00:51:13;;;;;;;1.50;0.30;;;;;;;5.77;100.00;101306.34;4938785;29;20461;-75
2020/12/19 00:53:40;;;;;;;2.10;0.40;;;;;;;5.64;100.00;101307.19;4936159;29;20447;-75
2020/12/19 00:56:28;;;;;;;1.87;0.50;;;;;;;5.77;100.00;101290.31;4914829;29;20813;-74
2020/12/19 00:58:55;;;;;;;2.00;0.43;;;;;;;5.69;100.00;101283.81;4924409;29;20841;-75
2020/12/19 01:01:24;;;;;;;1.97;0.40;;;;;;;5.51;100.00;101290.16;4932538;29;20554;-75
2020/12/19 01:03:54;;;;;;;2.70;0.40;;;;;;;5.58;100.00;101289.72;4919354;29;20463;-77
2020/12/19 01:06:42;;;;;;;2.40;0.27;;;;;;;5.45;100.00;101286.84;4931185;29;20534;-76
2020/12/19 01:09:08;;;;;;;2.30;0.80;;;;;;;5.51;100.00;101282.16;4884308;29;20877;-77
2020/12/19 01:11:35;;;;;;;1.60;0.30;;;;;;;5.57;100.00;101286.28;4882000;29;20457;-76
2020/12/19 01:14:02;;;;;;;3.40;0.40;;;;;;;5.50;100.00;101281.38;4885964;29;20532;-75
2020/12/19 01:16:29;;;;;;;3.23;0.83;;;;;;;5.53;100.00;101279.97;4879693;29;20453;-76
2020/12/19 01:18:56;;;;;;;2.50;0.40;;;;;;;5.55;100.00;101285.00;4875764;29;20453;-75
2020/12/19 01:21:25;;;;;;;1.83;0.20;;;;;;;5.57;100.00;101285.47;4920970;29;20498;-78
2020/12/19 01:23:51;;;;;;;2.20;0.57;;;;;;;5.66;100.00;101273.75;4931141;29;20461;-75
2020/12/19 01:26:18;;;;;;;2.20;0.37;;;;;;;5.71;100.00;101273.63;4931836;29;20474;-75
2020/12/19 01:28:44;;;;;;;2.50;0.57;;;;;;;5.54;100.00;101281.53;4935390;29;20438;-75
2020/12/19 01:31:13;;;;;;;3.00;0.50;;;;;;;5.61;100.00;101279.25;4947584;29;20485;-76
2020/12/19 01:33:39;;;;;;;2.27;0.50;;;;;;;5.60;100.00;101274.97;4933056;29;20434;-74
2020/12/19 01:36:13;;;;;;;2.77;0.37;;;;;;;5.60;100.00;101274.19;4935128;29;20434;-75
2020/12/19 01:38:39;;;;;;;2.00;0.30;;;;;;;5.36;100.00;101274.53;4942377;29;20446;-75
2020/12/19 01:41:05;;;;;;;1.83;0.20;;;;;;;5.40;100.00;101278.16;4936054;29;20457;-75
2020/12/19 01:43:47;;;;;;;2.10;0.20;;;;;;;5.33;100.00;101275.13;4929965;29;20911;-75
2020/12/19 01:46:26;;;;;;;2.17;0.40;;;;;;;5.40;100.00;101260.25;4971919;28;20471;-75
2020/12/19 01:48:54;;;;;;;3.10;0.63;;;;;;;5.40;100.00;101270.94;5008144;28;20460;-75
2020/12/19 01:51:20;;;;;;;1.70;0.30;;;;;;;5.39;100.00;101264.03;5008097;28;20933;-75
2020/12/19 01:53:46;;;;;;;2.07;0.37;;;;;;;5.36;100.00;101251.25;5018993;28;20430;-75
2020/12/19 01:56:12;;;;;;;1.70;0.30;;;;;;;5.37;100.00;101266.19;5018486;28;20434;-75
2020/12/19 01:58:38;;;;;;;1.87;0.43;;;;;;;5.42;100.00;101262.59;5000400;28;20185;-75
2020/12/19 02:01:08;;;;;;;2.03;0.30;;;;;;;5.33;100.00;101259.09;5007228;28;20458;-75
2020/12/19 02:03:34;;;;;;;1.90;0.43;;;;;;;5.53;100.00;101258.59;5009737;28;20454;-78
2020/12/19 02:06:01;;;;;;;1.90;0.37;;;;;;;5.39;100.00;101258.69;5011675;28;20459;-75
2020/12/19 02:08:27;;;;;;;2.70;0.50;;;;;;;5.33;100.00;101254.56;5006428;28;20185;-75
2020/12/19 02:10:52;;;;;;;1.73;0.33;;;;;;;5.35;100.00;101252.38;5005131;28;20513;-77
2020/12/19 02:13:18;;;;;;;2.70;0.60;;;;;;;5.44;100.00;101247.06;5010194;28;20195;-75
2020/12/19 02:15:45;;;;;;;1.40;0.20;;;;;;;5.33;100.00;101254.56;5009162;28;20684;-75
2020/12/19 02:18:12;;;;;;;3.63;0.23;;;;;;;5.20;100.00;101252.75;5004449;28;20176;-73
2020/12/19 02:20:38;;;;;;;1.40;0.30;;;;;;;5.34;100.00;101244.66;5010640;28;20436;-74
2020/12/19 02:23:25;;;;;;;2.60;0.40;;;;;;;5.34;100.00;101240.09;5014704;28;20881;-74
2020/12/19 02:25:50;;;;;;;1.50;0.30;;;;;;;5.37;100.00;101246.72;4948847;29;20481;-74
2020/12/19 02:28:16;;;;;;;1.70;0.40;;;;;;;5.25;100.00;101241.13;4913969;29;20455;-74
2020/12/19 02:30:41;;;;;;;3.30;0.60;;;;;;;5.36;100.00;101240.56;4929480;29;20217;-74
2020/12/19 02:33:07;;;;;;;1.77;0.30;;;;;;;5.24;100.00;101245.72;4949576;29;20230;-75
2020/12/19 02:35:32;;;;;;;1.80;0.47;;;;;;;5.33;100.00;101246.53;4936045;29;20219;-74
2020/12/19 02:38:01;;;;;;;1.97;0.47;;;;;;;5.31;100.00;101247.94;4956486;28;20262;-74
2020/12/19 02:40:27;;;;;;;1.73;0.30;;;;;;;5.31;100.00;101243.38;4955980;28;20238;-74
2020/12/19 02:42:52;;;;;;;1.40;0.30;;;;;;;5.15;100.00;101244.84;4935099;29;20450;-75
2020/12/19 02:45:18;;;;;;;1.60;0.30;;;;;;;5.28;100.00;101241.31;4959831;28;20828;-75
2020/12/19 02:47:43;;;;;;;1.70;0.20;;;;;;;5.18;100.00;101246.13;4950983;28;20200;-77
2020/12/19 02:50:09;;;;;;;2.63;0.73;;;;;;;5.27;100.00;101239.75;4955716;29;20226;-74
2020/12/19 02:52:34;;;;;;;2.90;0.63;;;;;;;5.26;100.00;101238.19;4938402;29;20206;-74
2020/12/19 02:55:00;;;;;;;2.43;0.50;;;;;;;5.22;100.00;101236.41;4952911;29;20210;-74
2020/12/19 02:57:25;;;;;;;2.10;0.30;;;;;;;5.30;100.00;101233.78;4945254;29;20191;-75
2020/12/19 02:59:51;;;;;;;2.50;0.53;;;;;;;5.33;100.00;101238.53;4947612;29;20191;-78
2020/12/19 03:02:17;;;;;;;2.17;0.50;;;;;;;5.31;100.00;101234.59;4947068;28;20340;-74
2020/12/19 03:04:42;;;;;;;1.83;0.37;;;;;;;5.27;100.00;101239.75;5011778;28;20298;-74
2020/12/19 03:07:07;;;;;;;2.80;0.90;;;;;;;5.26;100.00;101227.50;5005927;28;20212;-74
2020/12/19 03:09:34;;;;;;;2.83;0.50;;;;;;;5.25;100.00;101228.59;5003669;28;20612;-76
2020/12/19 03:12:00;;;;;;;2.27;0.47;;;;;;;5.22;100.00;101236.41;5008071;28;20193;-75
2020/12/19 03:14:25;;;;;;;1.80;0.33;;;;;;;5.24;100.00;101229.69;5010415;28;20554;-75
2020/12/19 03:16:51;;;;;;;2.03;0.20;;;;;;;5.24;100.00;101234.22;5012402;28;20169;-75
2020/12/19 03:19:17;;;;;;;1.90;0.60;;;;;;;5.32;100.00;101236.19;5011775;28;20180;-76
2020/12/19 03:21:43;;;;;;;2.83;0.60;;;;;;;5.42;100.00;101235.91;5002854;28;20188;-75
2020/12/19 03:24:08;;;;;;;1.80;0.43;;;;;;;5.49;100.00;101233.59;5010672;28;20481;-75
2020/12/19 03:26:34;;;;;;;2.90;0.33;;;;;;;5.40;100.00;101230.88;5021776;28;20196;-76
2020/12/19 03:28:59;;;;;;;5.90;0.97;;;;;;;5.26;100.00;101229.38;5005004;28;20176;-78
2020/12/19 03:31:25;;;;;;;4.33;0.73;;;;;;;5.35;100.00;101222.19;5010123;28;20226;-75
2020/12/19 03:33:51;;;;;;;2.53;0.50;;;;;;;5.21;100.00;101213.47;5010114;28;20556;-75
2020/12/19 03:36:17;;;;;;;1.80;0.37;;;;;;;5.24;100.00;101200.31;5009288;28;20180;-75
2020/12/19 03:38:43;;;;;;;2.13;0.40;;;;;;;5.29;100.00;101207.41;5010729;28;20497;-75
2020/12/19 03:41:08;;;;;;;1.93;0.50;;;;;;;5.31;100.00;101202.53;4986235;28;20173;-76
2020/12/19 03:43:34;;;;;;;2.13;0.57;;;;;;;5.32;100.00;101198.78;5008253;28;20466;-75
2020/12/19 03:45:59;;;;;;;1.80;0.50;;;;;;;5.12;100.00;101202.75;5003071;28;20209;-74
2020/12/19 03:48:25;;;;;;;2.17;0.40;;;;;;;5.14;100.00;101192.56;4992737;28;20177;-75
2020/12/19 03:50:51;;;;;;;3.10;1.10;;;;;;;5.17;100.00;101188.47;4991662;28;20561;-75
2020/12/19 03:53:17;;;;;;;3.40;0.87;;;;;;;5.09;100.00;101189.25;4998325;28;20656;-74
2020/12/19 03:55:42;;;;;;;2.30;0.40;;;;;;;5.29;100.00;101183.38;5008447;28;20967;-75
2020/12/19 03:58:08;;;;;;;2.50;0.83;;;;;;;5.40;100.00;101190.81;5007904;28;20662;-76
2020/12/19 04:00:33;;;;;;;2.87;0.50;;;;;;;5.38;100.00;101185.00;5015721;28;20188;-75
2020/12/19 04:02:59;;;;;;;2.03;0.33;;;;;;;5.47;100.00;101177.84;5008276;28;20204;-76
2020/12/19 04:05:24;;;;;;;1.97;0.30;;;;;;;5.48;100.00;101176.72;5008930;28;20232;-74
2020/12/19 04:07:50;;;;;;;1.60;0.40;;;;;;;5.33;100.00;101166.44;5011485;28;20184;-76
2020/12/19 04:10:15;;;;;;;1.97;0.30;;;;;;;5.10;100.00;101167.56;5008054;28;20647;-75
2020/12/19 04:12:41;;;;;;;2.10;0.60;;;;;;;5.01;100.00;101171.28;5010535;28;20177;-77
2020/12/19 04:15:09;;;;;;;2.90;0.60;;;;;;;5.09;100.00;101178.56;5001047;28;20216;-75
2020/12/19 04:17:35;;;;;;;1.80;0.40;;;;;;;5.09;100.00;101174.00;5010962;28;20588;-75
2020/12/19 04:20:02;;;;;;;1.60;0.30;;;;;;;5.19;100.00;101165.72;5008119;28;20446;-75
2020/12/19 04:22:27;;;;;;;4.17;0.50;;;;;;;5.07;100.00;101162.84;5009468;28;20427;-74
2020/12/19 04:24:53;;;;;;;2.20;0.50;;;;;;;5.13;100.00;101169.63;5003759;28;20464;-74
2020/12/19 04:27:18;;;;;;;2.07;0.30;;;;;;;5.09;100.00;101165.97;4993647;28;20559;-75
2020/12/19 04:29:44;;;;;;;1.67;0.40;;;;;;;5.18;100.00;101158.03;5008965;28;20260;-75
2020/12/19 04:32:09;;;;;;;2.87;1.07;;;;;;;5.30;100.00;101159.03;5009685;28;20201;-75
2020/12/19 04:34:35;;;;;;;1.70;0.23;;;;;;;5.08;100.00;101155.63;5010493;28;20212;-75
2020/12/19 04:37:00;;;;;;;3.43;0.47;;;;;;;5.14;100.00;101159.75;5004174;28;20212;-75
2020/12/19 04:39:26;;;;;;;2.90;0.70;;;;;;;5.04;100.00;101171.47;5009292;28;20196;-75
2020/12/19 04:41:51;;;;;;;2.30;0.50;;;;;;;5.21;100.00;101166.22;5008935;28;20188;-75
2020/12/19 04:44:19;;;;;;;1.77;0.47;;;;;;;5.28;100.00;101160.44;5009358;28;20215;-75
2020/12/19 04:46:45;;;;;;;2.53;0.73;;;;;;;5.18;100.00;101150.81;5002597;28;20203;-74
2020/12/19 04:49:11;;;;;;;1.70;0.30;;;;;;;5.25;100.00;101151.16;4990117;28;21216;-76
2020/12/19 04:51:37;;;;;;;2.30;0.73;;;;;;;5.30;100.00;101156.34;5006490;28;20192;-76
2020/12/19 04:54:04;;;;;;;3.43;0.30;;;;;;;5.26;100.00;101158.09;4987356;28;20443;-76
2020/12/19 04:56:30;;;;;;;3.07;0.47;;;;;;;5.29;100.00;101151.34;4991960;28;20432;-75
2020/12/19 04:59:01;;;;;;;2.17;0.50;;;;;;;5.16;100.00;101157.56;5009877;28;20458;-75
2020/12/19 05:01:28;;;;;;;2.07;0.33;;;;;;;5.33;100.00;101147.75;4990456;28;20954;-78
2020/12/19 05:06:25;;;;;;;2.20;0.50;;;;;;;5.29;100.00;101146.78;4953729;28;20489;-77
2020/12/19 05:08:52;;;;;;;2.00;0.50;;;;;;;5.22;100.00;101145.66;4968360;28;20450;-80
2020/12/19 05:11:18;;;;;;;1.60;0.30;;;;;;;5.23;100.00;101140.00;4937274;29;20453;-76
2020/12/19 05:13:45;;;;;;;2.87;0.77;;;;;;;5.21;100.00;101150.19;4951138;29;20549;-75
2020/12/19 05:16:11;;;;;;;2.30;0.40;;;;;;;5.17;100.00;101145.78;4972189;28;20500;-76
2020/12/19 05:18:38;;;;;;;2.47;0.53;;;;;;;5.21;100.00;101147.53;4957084;28;20448;-76
2020/12/19 05:21:08;;;;;;;2.23;0.60;;;;;;;5.09;100.00;101144.63;4954630;28;20421;-76
2020/12/19 05:23:34;;;;;;;2.23;0.47;;;;;;;5.20;100.00;101145.97;4971423;28;20444;-76
2020/12/19 05:26:05;;;;;;;2.10;0.30;;;;;;;5.20;100.00;101145.97;4974677;28;20469;-75
2020/12/19 05:28:36;;;;;;;3.50;0.30;;;;;;;5.19;100.00;101155.06;4957209;28;20465;-76
2020/12/19 05:31:02;;;;;;;1.50;0.20;;;;;;;4.98;100.00;101147.88;4973058;28;20808;-75
2020/12/19 05:33:36;;;;;;;1.70;0.30;;;;;;;5.04;100.00;101136.75;4974159;28;20432;-76
2020/12/19 05:36:06;;;;;;;2.70;0.50;;;;;;;5.06;100.00;101142.59;4974783;28;20464;-75
2020/12/19 05:38:37;;;;;;;2.00;0.73;;;;;;;4.95;100.00;101143.94;4974857;28;20921;-76
2020/12/19 05:41:03;;;;;;;1.50;0.20;;;;;;;4.99;100.00;101136.09;4956595;28;20488;-75
2020/12/19 05:43:28;;;;;;;2.70;0.40;;;;;;;5.07;100.00;101138.81;4972465;28;20430;-76
2020/12/19 05:45:54;;;;;;;1.70;0.40;;;;;;;5.18;100.00;101144.69;4950323;28;20589;-76
2020/12/19 05:48:20;;;;;;;2.17;0.40;;;;;;;5.22;100.00;101137.66;4974005;28;20182;-76
2020/12/19 05:50:45;;;;;;;2.50;0.57;;;;;;;5.40;100.00;101131.31;4973831;28;20673;-73
2020/12/19 05:53:13;;;;;;;1.67;0.50;;;;;;;5.41;100.00;101131.00;4962523;28;20264;-76
2020/12/19 05:55:38;;;;;;;1.97;0.30;;;;;;;5.32;100.00;101130.16;4974108;28;20665;-73
2020/12/19 05:58:05;;;;;;;3.37;0.73;;;;;;;5.41;100.00;101116.84;4956872;28;20529;-73
2020/12/19 06:00:32;;;;;;;3.13;0.77;;;;;;;5.34;100.00;101122.63;4972656;28;20205;-73
2020/12/19 06:03:02;;;;;;;2.27;0.37;;;;;;;5.28;100.00;101123.84;4974021;28;20496;-73
2020/12/19 06:05:29;;;;;;;1.80;0.20;;;;;;;5.31;100.00;101128.59;4956889;28;20519;-76
2020/12/19 06:07:55;;;;;;;3.03;0.57;;;;;;;5.29;100.00;101124.63;4974080;28;20446;-73
2020/12/19 06:10:20;;;;;;;2.20;0.73;;;;;;;5.33;100.00;101123.72;4973822;28;20488;-73
2020/12/19 06:12:58;;;;;;;2.50;0.40;;;;;;;5.34;100.00;101117.28;4973315;28;20452;-73
2020/12/19 06:15:46;;;;;;;1.73;0.30;;;;;;;5.26;100.00;101110.03;4956378;28;20214;-73
2020/12/19 06:18:30;;;;;;;1.40;0.10;;;;;;;5.26;100.00;101118.06;4973050;28;20434;-74
2020/12/19 06:20:56;;;;;;;3.60;0.73;;;;;;;5.30;100.00;101107.53;4970296;28;20449;-73
2020/12/19 06:23:23;;;;;;;2.00;0.23;;;;;;;5.43;100.00;101114.66;4952395;28;20456;-74
2020/12/19 06:25:48;;;;;;;1.47;0.40;;;;;;;5.43;100.00;101114.66;4973532;28;20493;-73
2020/12/19 06:28:42;;;;;;;2.60;0.50;;;;;;;5.60;100.00;101109.38;4956188;28;20536;-73
2020/12/19 06:31:21;;;;;;;2.40;0.50;;;;;;;5.58;100.00;101108.09;4970265;28;20663;-76
2020/12/19 06:33:51;;;;;;;2.27;0.30;;;;;;;5.39;100.00;101101.13;4955368;28;20445;-73
2020/12/19 06:36:24;;;;;;;3.37;0.60;;;;;;;5.40;100.00;101100.03;4963314;28;20442;-73
2020/12/19 06:38:57;;;;;;;2.23;0.40;;;;;;;5.49;100.00;101103.53;4973239;28;20489;-75
2020/12/19 06:41:48;;;;;;;2.30;0.37;;;;;;;5.47;100.00;101095.03;4971386;28;20459;-73
2020/12/19 06:44:26;;;;;;;2.67;0.63;;;;;;;5.35;100.00;101086.81;4979354;28;20465;-73
2020/12/19 06:46:53;;;;;;;2.20;0.50;;;;;;;5.47;100.00;101088.91;4953210;28;20527;-75
2020/12/19 06:49:22;;;;;;;2.50;0.47;;;;;;;5.28;100.00;101101.72;4952039;28;20449;-73
2020/12/19 06:52:13;;;;;;;2.50;0.50;;;;;;;5.43;100.00;101094.09;4968959;28;20800;-73
2020/12/19 06:54:45;;;;;;;1.60;0.30;;;;;;;5.38;100.00;101096.13;4972934;28;20464;-73
2020/12/19 06:57:25;;;;;;;1.90;0.40;;;;;;;5.34;100.00;101095.91;4970855;28;20778;-73
2020/12/19 06:59:52;;;;;;;2.20;0.47;;;;;;;5.31;100.00;101095.75;4963575;28;20449;-76
2020/12/19 07:02:17;;;;;;;1.83;0.57;;;;;;;5.26;100.00;101099.38;4971324;28;20492;-74
2020/12/19 07:04:44;;;;;;;2.33;0.40;;;;;;;5.08;100.00;101099.56;4969692;28;20552;-74
2020/12/19 07:07:11;;;;;;;1.60;0.30;;;;;;;5.10;100.00;101103.53;4947249;28;20419;-74
2020/12/19 07:09:38;;;;;;;2.10;0.60;;;;;;;5.26;100.00;101098.56;4949137;28;20487;-74
2020/12/19 07:12:04;;;;;;;2.37;0.50;;;;;;;5.30;100.00;101112.88;4961495;28;20442;-74
2020/12/19 07:14:40;;;;;;;1.77;0.40;;;;;;;5.38;100.00;101107.56;4968202;28;20511;-75
2020/12/19 07:17:19;;;;;;;2.13;0.40;;;;;;;5.31;100.00;101106.44;4967266;28;20712;-74
2020/12/19 07:19:46;;;;;;;3.50;0.30;;;;;;;5.21;100.00;101106.69;4936971;28;20452;-75
2020/12/19 07:22:12;;;;;;;3.17;0.27;;;;;;;5.21;100.00;101109.38;4966583;28;20453;-78
2020/12/19 07:24:37;;;;;;;1.60;0.30;;;;;;;5.37;100.00;101108.66;4959028;28;20880;-74
2020/12/19 07:27:03;;;;;;;2.50;0.53;;;;;;;5.23;100.00;101097.28;4976908;28;20450;-73
2020/12/19 07:29:29;;;;;;;1.50;0.27;;;;;;;5.26;100.00;101110.03;4974172;28;20185;-74
2020/12/19 07:31:56;;;;;;;1.63;0.40;;;;;;;5.22;100.00;101101.06;4970668;28;20827;-73
2020/12/19 07:34:23;;;;;;;2.00;0.40;;;;;;;5.27;100.00;101105.47;4970302;28;20598;-74
2020/12/19 07:36:51;;;;;;;2.33;0.70;;;;;;;5.32;100.00;101102.69;4971627;28;20803;-75
2020/12/19 07:39:18;;;;;;;2.13;0.40;;;;;;;5.44;100.00;101103.66;4972059;28;20449;-75
2020/12/19 07:41:47;;;;;;;2.67;0.67;;;;;;;5.30;100.00;101094.97;4944878;28;21048;-76
2020/12/19 07:44:19;;;;;;;2.33;0.70;;;;;;;5.22;100.00;101109.09;4939702;28;20849;-74
2020/12/19 07:46:59;;;;;;;2.97;0.47;;;;;;;5.23;100.00;101104.50;4950485;28;20476;-74
2020/12/19 07:49:31;;;;;;;1.50;0.30;;;;;;;5.44;100.00;101103.66;4951406;28;20182;-74
2020/12/19 07:52:10;;;;;;;1.50;0.30;;;;;;;5.34;100.00;101108.50;4963921;28;20452;-74
2020/12/19 07:54:37;;;;;;;2.57;0.60;;;;;;;5.39;100.00;101116.38;4967544;28;20461;-74
2020/12/19 07:57:04;;;;;;;2.23;0.50;;;;;;;5.35;100.00;101115.41;4970858;28;20448;-75
2020/12/19 07:59:29;;;;;;;2.43;0.50;;;;;;;5.26;100.00;101114.59;4969255;28;20449;-74
2020/12/19 08:01:55;;;;;;;2.53;0.67;;;;;;;4.97;100.00;101120.41;4970530;28;20425;-74
2020/12/19 08:04:22;;;;;;;2.50;0.63;;;;;;;4.98;100.00;101127.31;4965230;28;20218;-76
2020/12/19 08:06:48;;;;;;;2.33;0.60;;;;;;;5.07;100.00;101114.03;4967990;28;20473;-74
2020/12/19 08:09:18;;;;;;;2.13;0.30;;;;;;;5.10;100.00;101111.53;4970221;28;20452;-74
2020/12/19 08:11:48;;;;;;;3.03;0.83;;;;;;;5.16;100.00;101109.50;4968465;28;20515;-74
2020/12/19 08:14:19;;;;;;;2.20;0.47;;;;;;;5.10;100.00;101126.75;4953482;28;20989;-74
2020/12/19 08:16:45;;;;;;;1.60;0.30;;;;;;;5.18;100.00;101121.47;4966718;28;20496;-74
2020/12/19 08:19:14;;;;;;;1.83;0.37;;;;;;;5.14;100.00;101122.38;4970897;28;20425;-74
2020/12/19 08:21:42;;;;;;;1.93;0.40;;;;;;;5.21;100.00;101128.06;4970730;28;20441;-75
2020/12/19 08:24:07;;;;;;;4.10;0.50;;;;;;;5.37;100.00;101119.34;4968078;28;20500;-77
2020/12/19 08:26:33;;;;;;;4.20;0.53;;;;;;;5.29;100.00;101108.63;4964311;28;20449;-75
2020/12/19 08:29:23;;;;;;;1.60;0.20;;;;;;;5.25;100.00;101124.47;4949945;28;20189;-74
2020/12/19 08:31:51;;;;;;;1.23;0.13;;;;;;;5.27;100.00;101100.94;4918030;29;20256;-74
2020/12/19 08:34:17;;;;;;;2.33;0.33;;;;;;;5.13;100.00;101105.56;4928634;29;20490;-74
2020/12/19 08:36:46;;;;;;;2.53;0.90;;;;;;;5.29;100.00;101098.75;4929150;29;20435;-75
2020/12/19 08:39:12;;;;;;;2.57;0.40;;;;;;;5.18;100.00;101107.31;4930208;29;20454;-75
2020/12/19 08:41:38;;;;;;;1.63;0.50;;;;;;;5.31;100.00;101101.88;4929914;29;20955;-74
2020/12/19 08:44:03;;;;;;;1.73;0.50;;;;;;;5.34;100.00;101098.59;4924329;29;20515;-75
2020/12/19 08:46:30;;;;;;;3.13;0.53;;;;;;;5.41;100.00;101090.16;4931590;29;20199;-74
2020/12/19 08:49:02;;;;;;;1.60;0.30;;;;;;;5.21;100.00;101099.47;4929274;29;20863;-74
2020/12/19 08:51:28;;;;;;;1.60;0.40;;;;;;;5.22;100.00;101097.59;4931502;29;20459;-75
2020/12/19 08:54:09;;;;;;;3.60;0.90;;;;;;;5.22;100.00;101095.72;4935584;29;20516;-76
2020/12/19 08:56:35;;;;;;;1.77;0.50;;;;;;;5.26;100.00;101093.22;4929896;29;20704;-74
2020/12/19 08:59:01;;;;;;;2.40;0.43;;;;;;;5.20;100.00;101099.78;4915323;29;20514;-74
2020/12/19 09:01:30;;;;;;;1.73;0.43;;;;;;;5.37;100.00;101107.88;4928285;29;20542;-74
2020/12/19 09:04:07;;;;;;;3.03;0.50;;;;;;;5.54;100.00;101105.25;4931847;29;20208;-74
2020/12/19 09:06:45;;;;;;;2.70;0.83;;;;;;;5.64;100.00;101098.84;4918292;29;20804;-74
2020/12/19 09:09:16;;;;;;;2.97;0.70;;;;;;;5.88;100.00;101097.38;4943302;28;20528;-75
2020/12/19 09:11:42;;;;;;;2.63;0.63;;;;;;;5.99;100.00;101104.00;4962612;28;20453;-75
2020/12/19 09:14:10;;;;;;;3.33;0.60;;;;;;;6.12;100.00;101088.91;4970474;28;20500;-74
2020/12/19 09:16:46;;;;;;;2.10;0.47;;;;;;;6.10;100.00;101096.44;4973001;28;20186;-78
2020/12/19 09:19:13;;;;;;;2.33;0.50;;;;;;;6.30;100.00;101098.50;4967097;28;20448;-77
2020/12/19 09:21:39;;;;;;;2.93;0.90;;;;;;;6.39;100.00;101088.56;4973548;28;20426;-78
2020/12/19 09:24:04;;;;;;;1.90;0.40;;;;;;;6.56;100.00;101090.47;4967516;28;20473;-77
2020/12/19 09:26:30;;;;;;;2.57;0.40;;;;;;;6.50;100.00;101092.53;4971044;28;20465;-77
2020/12/19 09:28:55;;;;;;;2.90;0.77;;;;;;;6.70;100.00;101089.19;4971749;28;20178;-76
2020/12/19 09:31:21;;;;;;;2.60;0.60;;;;;;;6.74;100.00;101087.44;4973663;28;20197;-80
2020/12/19 09:33:46;;;;;;;2.37;0.70;;;;;;;6.77;100.00;101080.69;4972547;28;20182;-77
2020/12/19 09:36:12;;;;;;;3.90;0.60;;;;;;;6.72;100.00;101086.97;4972790;28;20201;-77
2020/12/19 09:38:37;;;;;;;2.50;0.57;;;;;;;7.01;100.00;101083.59;4955339;28;20178;-77
2020/12/19 09:41:07;;;;;;;3.20;0.57;;;;;;;7.00;100.00;101082.03;4974976;28;20244;-76
2020/12/19 09:43:32;;;;;;;1.73;0.50;;;;;;;7.08;100.00;101068.59;4966964;28;20187;-76
2020/12/19 09:45:58;;;;;;;3.00;0.60;;;;;;;7.01;100.00;101072.88;4973602;28;20472;-77
2020/12/19 09:48:23;;;;;;;1.70;0.37;;;;;;;6.84;100.00;101062.22;4970904;28;20240;-79
2020/12/19 09:50:49;;;;;;;2.43;0.70;;;;;;;6.96;100.00;101065.03;4971900;28;20322;-75
2020/12/19 09:53:14;;;;;;;2.40;0.60;;;;;;;6.89;100.00;101068.19;4973370;28;20612;-76
2020/12/19 09:55:40;;;;;;;3.13;0.50;;;;;;;6.85;100.00;101055.78;4967013;28;20206;-74
2020/12/19 09:58:05;;;;;;;1.40;0.20;;;;;;;6.59;100.00;101074.56;4952416;28;20186;-74
2020/12/19 10:00:31;;;;;;;2.03;0.40;;;;;;;6.55;100.00;101068.28;4971773;28;20553;-78
2020/12/19 10:02:57;;;;;;;3.20;0.53;;;;;;;6.65;100.00;101067.16;4971247;28;20178;-75
2020/12/19 10:05:23;;;;;;;3.70;0.80;;;;;;;6.61;100.00;101072.34;4971124;28;20218;-75
2020/12/19 10:07:49;;;;;;;2.33;0.73;;;;;;;6.87;100.00;101067.72;4970189;28;20973;-76
2020/12/19 10:10:14;;;;;;;2.20;0.40;;;;;;;6.97;100.00;101070.06;4952566;28;20202;-75
2020/12/19 10:12:40;;;;;;;3.97;0.83;;;;;;;6.77;100.00;101060.06;4968524;28;20201;-75
2020/12/19 10:15:07;;;;;;;3.00;0.70;;;;;;;6.64;100.00;101062.91;4973715;28;20210;-76
2020/12/19 10:17:33;;;;;;;2.33;0.40;;;;;;;6.90;100.00;101051.03;4953968;28;20200;-75
2020/12/19 10:19:58;;;;;;;2.60;0.60;;;;;;;7.14;100.00;101053.16;4953980;28;20455;-76
2020/12/19 10:22:44;;;;;;;3.10;0.70;;;;;;;7.04;100.00;101051.63;4963882;28;20197;-75
2020/12/19 10:25:10;;;;;;;2.30;0.50;;;;;;;7.14;100.00;101045.91;4891182;29;20216;-77
2020/12/19 10:27:35;;;;;;;1.83;0.50;;;;;;;7.10;100.00;101036.94;4888323;29;20491;-75
2020/12/19 10:30:01;;;;;;;2.80;0.43;;;;;;;7.27;100.00;101028.84;4874032;29;20200;-76
2020/12/19 10:32:26;;;;;;;1.87;0.40;;;;;;;7.35;100.00;101031.78;4893000;29;20243;-75
2020/12/19 10:34:52;;;;;;;2.93;0.40;;;;;;;7.29;100.00;101026.63;4888932;29;20220;-75
2020/12/19 10:37:18;;;;;;;3.40;0.67;;;;;;;7.40;100.00;101026.22;4890027;29;20192;-75
2020/12/19 10:39:43;;;;;;;3.77;0.80;;;;;;;7.54;100.00;101021.44;4882053;29;21027;-75
2020/12/19 10:42:09;;;;;;;2.57;0.60;;;;;;;7.63;100.00;101025.63;4893810;29;20287;-75
2020/12/19 10:44:34;;;;;;;1.73;0.40;;;;;;;7.38;100.00;101018.53;4891057;29;20669;-75
2020/12/19 10:47:00;;;;;;;2.30;0.60;;;;;;;7.58;100.00;101027.72;4894682;29;20212;-75
2020/12/19 10:49:26;;;;;;;1.60;0.30;;;;;;;7.37;100.00;101032.25;4893473;29;20283;-76
2020/12/19 10:51:52;;;;;;;2.50;0.47;;;;;;;7.37;100.00;101024.22;4891121;29;20647;-75
2020/12/19 10:54:17;;;;;;;2.03;0.40;;;;;;;7.42;100.00;101019.44;4892799;29;20504;-75
2020/12/19 10:56:43;;;;;;;2.67;0.80;;;;;;;7.55;100.00;101018.41;4887602;29;20654;-75
2020/12/19 10:59:08;;;;;;;4.80;0.80;;;;;;;7.67;100.00;101013.16;4889573;29;20196;-75
2020/12/19 11:01:34;;;;;;;3.07;1.00;;;;;;;7.62;100.00;101018.72;4925755;28;20253;-74
2020/12/19 11:03:59;;;;;;;1.80;0.40;;;;;;;7.70;100.00;101009.03;4950743;28;20194;-77
2020/12/19 11:06:26;;;;;;;1.90;0.53;;;;;;;7.78;100.00;101005.50;4968967;28;20202;-74
2020/12/19 11:08:52;;;;;;;1.90;0.30;;;;;;;7.82;100.00;101007.19;4954286;28;20178;-79
2020/12/19 11:11:19;;;;;;;2.40;0.80;;;;;;;7.80;100.00;101006.72;4967219;28;20446;-75
2020/12/19 11:13:45;;;;;;;2.80;0.70;;;;;;;7.95;100.00;100997.31;4966625;28;20511;-75
2020/12/19 11:16:20;;;;;;;4.27;1.10;;;;;;;7.78;100.00;100992.09;4969549;28;20529;-76
2020/12/19 11:18:45;;;;;;;2.90;0.50;;;;;;;7.77;100.00;100994.00;4969719;28;20456;-76
2020/12/19 11:21:11;;;;;;;2.00;0.47;;;;;;;7.88;100.00;100992.47;4971531;28;20421;-76
2020/12/19 11:23:38;;;;;;;2.13;0.40;;;;;;;7.75;100.00;100984.72;4957716;28;20182;-76
2020/12/19 11:26:03;;;;;;;1.80;0.50;;;;;;;7.71;100.00;100984.59;4969864;28;20217;-76
2020/12/19 11:28:29;;;;;;;2.67;0.40;;;;;;;7.82;100.00;100982.31;4952501;28;20495;-76
2020/12/19 11:30:54;;;;;;;2.30;0.50;;;;;;;7.92;100.00;100984.56;4968761;28;20196;-76